sensor_id;sensor_type;location;lat;lon;timestamp;P1;durP1;ratioP1;P2;durP2;ratioP2
58681;SDS011;44460;40.162;18.294;2023-03-19T00:02:02;55.70;;;31.80;;
58681;SDS011;44460;40.162;18.294;2023-03-19T00:04:27;46.75;;;31.60;;
58681;SDS011;44460;40.162;18.294;2023-03-19T00:06:53;42.88;;;27.45;;
58681;SDS011;44460;40.162;18.294;2023-03-19T00:09:19;51.70;;;30.05;;
58681;SDS011;44460;40.162;18.294;2023-03-19T00:11:44;49.70;;;28.15;;
58681;SDS011;44460;40.162;18.294;2023-03-19T00:14:10;40.83;;;26.92;;
58681;SDS011;44460;40.162;18.294;2023-03-19T00:16:36;44.03;;;27.00;;
58681;SDS011;44460;40.162;18.294;2023-03-19T00:19:01;42.08;;;26.20;;
58681;SDS011;44460;40.162;18.294;2023-03-19T00:21:28;44.10;;;24.63;;
58681;SDS011;44460;40.162;18.294;2023-03-19T00:23:53;37.63;;;23.67;;
58681;SDS011;44460;40.162;18.294;2023-03-19T00:28:46;47.33;;;27.30;;
58681;SDS011;44460;40.162;18.294;2023-03-19T00:31:15;54.25;;;31.73;;
58681;SDS011;44460;40.162;18.294;2023-03-19T00:33:41;50.38;;;30.65;;
58681;SDS011;44460;40.162;18.294;2023-03-19T00:36:07;52.22;;;33.15;;
58681;SDS011;44460;40.162;18.294;2023-03-19T00:38:33;43.92;;;27.98;;
58681;SDS011;44460;40.162;18.294;2023-03-19T00:41:01;48.35;;;29.15;;
58681;SDS011;44460;40.162;18.294;2023-03-19T00:43:27;48.83;;;32.72;;
58681;SDS011;44460;40.162;18.294;2023-03-19T00:45:53;48.35;;;28.73;;
58681;SDS011;44460;40.162;18.294;2023-03-19T00:48:18;47.97;;;26.25;;
58681;SDS011;44460;40.162;18.294;2023-03-19T00:50:44;40.28;;;28.10;;
58681;SDS011;44460;40.162;18.294;2023-03-19T00:53:10;44.08;;;27.90;;
58681;SDS011;44460;40.162;18.294;2023-03-19T00:55:35;42.13;;;26.00;;
58681;SDS011;44460;40.162;18.294;2023-03-19T00:58:00;44.30;;;27.17;;
58681;SDS011;44460;40.162;18.294;2023-03-19T01:00:26;37.67;;;26.33;;
58681;SDS011;44460;40.162;18.294;2023-03-19T01:02:52;45.50;;;26.42;;
58681;SDS011;44460;40.162;18.294;2023-03-19T01:05:18;43.47;;;24.88;;
58681;SDS011;44460;40.162;18.294;2023-03-19T01:07:43;37.42;;;23.52;;
58681;SDS011;44460;40.162;18.294;2023-03-19T01:10:09;40.67;;;25.80;;
58681;SDS011;44460;40.162;18.294;2023-03-19T01:12:34;36.17;;;23.92;;
58681;SDS011;44460;40.162;18.294;2023-03-19T01:15:00;44.50;;;23.65;;
58681;SDS011;44460;40.162;18.294;2023-03-19T01:17:25;33.72;;;23.27;;
58681;SDS011;44460;40.162;18.294;2023-03-19T01:19:51;34.88;;;22.50;;
58681;SDS011;44460;40.162;18.294;2023-03-19T01:22:17;36.92;;;22.77;;
58681;SDS011;44460;40.162;18.294;2023-03-19T01:24:47;46.13;;;25.65;;
58681;SDS011;44460;40.162;18.294;2023-03-19T01:27:13;39.50;;;26.70;;
58681;SDS011;44460;40.162;18.294;2023-03-19T01:29:38;41.67;;;26.42;;
58681;SDS011;44460;40.162;18.294;2023-03-19T01:32:15;41.28;;;24.67;;
58681;SDS011;44460;40.162;18.294;2023-03-19T01:34:59;41.63;;;25.13;;
58681;SDS011;44460;40.162;18.294;2023-03-19T01:37:25;53.92;;;30.13;;
58681;SDS011;44460;40.162;18.294;2023-03-19T01:39:51;42.95;;;25.98;;
58681;SDS011;44460;40.162;18.294;2023-03-19T01:42:16;44.97;;;25.02;;
58681;SDS011;44460;40.162;18.294;2023-03-19T01:44:50;37.45;;;23.88;;
58681;SDS011;44460;40.162;18.294;2023-03-19T01:47:30;41.22;;;23.75;;
58681;SDS011;44460;40.162;18.294;2023-03-19T01:50:24;40.75;;;24.48;;
58681;SDS011;44460;40.162;18.294;2023-03-19T01:53:12;41.00;;;26.55;;
58681;SDS011;44460;40.162;18.294;2023-03-19T01:55:58;48.45;;;28.38;;
58681;SDS011;44460;40.162;18.294;2023-03-19T01:58:52;42.67;;;28.25;;
58681;SDS011;44460;40.162;18.294;2023-03-19T02:01:37;44.72;;;26.85;;
58681;SDS011;44460;40.162;18.294;2023-03-19T02:04:04;43.60;;;26.95;;
58681;SDS011;44460;40.162;18.294;2023-03-19T02:06:33;43.60;;;27.52;;
58681;SDS011;44460;40.162;18.294;2023-03-19T02:09:00;37.15;;;25.40;;
58681;SDS011;44460;40.162;18.294;2023-03-19T02:11:26;43.30;;;29.50;;
58681;SDS011;44460;40.162;18.294;2023-03-19T02:13:52;40.53;;;24.52;;
58681;SDS011;44460;40.162;18.294;2023-03-19T02:16:17;39.30;;;25.23;;
58681;SDS011;44460;40.162;18.294;2023-03-19T02:18:43;40.22;;;26.30;;
58681;SDS011;44460;40.162;18.294;2023-03-19T02:21:12;40.50;;;24.20;;
58681;SDS011;44460;40.162;18.294;2023-03-19T02:23:40;43.72;;;25.60;;
58681;SDS011;44460;40.162;18.294;2023-03-19T02:26:21;51.35;;;28.23;;
58681;SDS011;44460;40.162;18.294;2023-03-19T02:28:49;42.20;;;27.63;;
58681;SDS011;44460;40.162;18.294;2023-03-19T02:31:21;44.83;;;29.13;;
58681;SDS011;44460;40.162;18.294;2023-03-19T02:34:00;49.75;;;29.58;;
58681;SDS011;44460;40.162;18.294;2023-03-19T02:36:48;42.75;;;27.40;;
58681;SDS011;44460;40.162;18.294;2023-03-19T02:39:14;44.88;;;27.60;;
58681;SDS011;44460;40.162;18.294;2023-03-19T02:41:42;42.05;;;27.23;;
58681;SDS011;44460;40.162;18.294;2023-03-19T02:44:08;51.90;;;26.77;;
58681;SDS011;44460;40.162;18.294;2023-03-19T02:46:36;44.80;;;27.30;;
58681;SDS011;44460;40.162;18.294;2023-03-19T02:49:01;44.05;;;27.15;;
58681;SDS011;44460;40.162;18.294;2023-03-19T02:51:28;47.38;;;30.20;;
58681;SDS011;44460;40.162;18.294;2023-03-19T02:53:53;44.30;;;28.70;;
58681;SDS011;44460;40.162;18.294;2023-03-19T02:56:19;46.83;;;29.13;;
58681;SDS011;44460;40.162;18.294;2023-03-19T02:58:44;38.28;;;27.13;;
58681;SDS011;44460;40.162;18.294;2023-03-19T03:01:11;45.35;;;29.65;;
58681;SDS011;44460;40.162;18.294;2023-03-19T03:03:37;48.30;;;29.05;;
58681;SDS011;44460;40.162;18.294;2023-03-19T03:06:02;47.97;;;31.10;;
58681;SDS011;44460;40.162;18.294;2023-03-19T03:08:27;48.55;;;28.08;;
58681;SDS011;44460;40.162;18.294;2023-03-19T03:10:53;48.20;;;30.65;;
58681;SDS011;44460;40.162;18.294;2023-03-19T03:13:18;42.25;;;29.27;;
58681;SDS011;44460;40.162;18.294;2023-03-19T03:15:44;46.95;;;30.08;;
58681;SDS011;44460;40.162;18.294;2023-03-19T03:18:09;45.75;;;29.83;;
58681;SDS011;44460;40.162;18.294;2023-03-19T03:20:35;50.90;;;27.85;;
58681;SDS011;44460;40.162;18.294;2023-03-19T03:23:00;46.22;;;28.30;;
58681;SDS011;44460;40.162;18.294;2023-03-19T03:25:26;43.30;;;26.33;;
58681;SDS011;44460;40.162;18.294;2023-03-19T03:27:53;44.83;;;28.40;;
58681;SDS011;44460;40.162;18.294;2023-03-19T03:30:19;39.38;;;26.45;;
58681;SDS011;44460;40.162;18.294;2023-03-19T03:32:44;40.95;;;26.75;;
58681;SDS011;44460;40.162;18.294;2023-03-19T03:35:10;38.45;;;24.48;;
58681;SDS011;44460;40.162;18.294;2023-03-19T03:37:35;36.90;;;24.65;;
58681;SDS011;44460;40.162;18.294;2023-03-19T03:40:01;38.03;;;25.83;;
58681;SDS011;44460;40.162;18.294;2023-03-19T03:42:31;44.35;;;26.30;;
58681;SDS011;44460;40.162;18.294;2023-03-19T03:44:57;42.10;;;26.02;;
58681;SDS011;44460;40.162;18.294;2023-03-19T03:47:22;41.63;;;29.52;;
58681;SDS011;44460;40.162;18.294;2023-03-19T03:49:48;47.60;;;28.20;;
58681;SDS011;44460;40.162;18.294;2023-03-19T03:52:13;46.70;;;27.73;;
58681;SDS011;44460;40.162;18.294;2023-03-19T03:54:39;45.15;;;28.58;;
58681;SDS011;44460;40.162;18.294;2023-03-19T03:57:05;50.95;;;29.35;;
58681;SDS011;44460;40.162;18.294;2023-03-19T03:59:30;50.55;;;28.67;;
58681;SDS011;44460;40.162;18.294;2023-03-19T04:01:56;45.72;;;27.23;;
58681;SDS011;44460;40.162;18.294;2023-03-19T04:04:22;56.72;;;30.55;;
58681;SDS011;44460;40.162;18.294;2023-03-19T04:06:47;51.50;;;30.42;;
58681;SDS011;44460;40.162;18.294;2023-03-19T04:09:33;45.03;;;28.50;;
58681;SDS011;44460;40.162;18.294;2023-03-19T04:11:59;48.13;;;29.65;;
58681;SDS011;44460;40.162;18.294;2023-03-19T04:14:24;44.42;;;28.23;;
58681;SDS011;44460;40.162;18.294;2023-03-19T04:16:50;48.38;;;28.65;;
58681;SDS011;44460;40.162;18.294;2023-03-19T04:19:16;46.13;;;26.63;;
58681;SDS011;44460;40.162;18.294;2023-03-19T04:21:41;47.63;;;30.17;;
58681;SDS011;44460;40.162;18.294;2023-03-19T04:24:07;65.57;;;29.90;;
58681;SDS011;44460;40.162;18.294;2023-03-19T04:26:35;51.00;;;30.08;;
58681;SDS011;44460;40.162;18.294;2023-03-19T04:29:01;52.85;;;28.65;;
58681;SDS011;44460;40.162;18.294;2023-03-19T04:31:26;48.03;;;28.55;;
58681;SDS011;44460;40.162;18.294;2023-03-19T04:33:52;47.60;;;27.98;;
58681;SDS011;44460;40.162;18.294;2023-03-19T04:36:18;44.33;;;27.10;;
58681;SDS011;44460;40.162;18.294;2023-03-19T04:38:44;45.83;;;26.70;;
58681;SDS011;44460;40.162;18.294;2023-03-19T04:41:10;46.45;;;27.25;;
58681;SDS011;44460;40.162;18.294;2023-03-19T04:43:41;42.15;;;27.02;;
58681;SDS011;44460;40.162;18.294;2023-03-19T04:46:06;47.08;;;28.30;;
58681;SDS011;44460;40.162;18.294;2023-03-19T04:48:35;43.90;;;25.90;;
58681;SDS011;44460;40.162;18.294;2023-03-19T04:51:01;42.03;;;26.00;;
58681;SDS011;44460;40.162;18.294;2023-03-19T04:53:27;40.10;;;26.70;;
58681;SDS011;44460;40.162;18.294;2023-03-19T04:55:53;38.85;;;24.13;;
58681;SDS011;44460;40.162;18.294;2023-03-19T04:58:19;37.47;;;24.52;;
58681;SDS011;44460;40.162;18.294;2023-03-19T05:00:53;47.30;;;24.85;;
58681;SDS011;44460;40.162;18.294;2023-03-19T05:03:25;40.30;;;25.92;;
58681;SDS011;44460;40.162;18.294;2023-03-19T05:05:51;37.70;;;24.80;;
58681;SDS011;44460;40.162;18.294;2023-03-19T05:08:17;41.67;;;26.45;;
58681;SDS011;44460;40.162;18.294;2023-03-19T05:10:43;43.95;;;25.50;;
58681;SDS011;44460;40.162;18.294;2023-03-19T05:13:09;41.45;;;25.35;;
58681;SDS011;44460;40.162;18.294;2023-03-19T05:15:43;39.63;;;24.65;;
58681;SDS011;44460;40.162;18.294;2023-03-19T05:18:10;40.10;;;25.55;;
58681;SDS011;44460;40.162;18.294;2023-03-19T05:23:07;37.42;;;25.73;;
58681;SDS011;44460;40.162;18.294;2023-03-19T05:25:40;38.67;;;25.08;;
58681;SDS011;44460;40.162;18.294;2023-03-19T05:28:08;38.05;;;23.52;;
58681;SDS011;44460;40.162;18.294;2023-03-19T05:30:34;39.95;;;24.27;;
58681;SDS011;44460;40.162;18.294;2023-03-19T05:33:13;35.78;;;22.88;;
58681;SDS011;44460;40.162;18.294;2023-03-19T05:35:40;38.60;;;22.77;;
58681;SDS011;44460;40.162;18.294;2023-03-19T05:38:14;39.17;;;21.65;;
58681;SDS011;44460;40.162;18.294;2023-03-19T05:40:42;41.63;;;22.80;;
58681;SDS011;44460;40.162;18.294;2023-03-19T05:43:22;37.60;;;21.50;;
58681;SDS011;44460;40.162;18.294;2023-03-19T05:45:50;34.22;;;20.15;;
58681;SDS011;44460;40.162;18.294;2023-03-19T05:48:22;36.40;;;21.63;;
58681;SDS011;44460;40.162;18.294;2023-03-19T05:50:48;31.88;;;20.20;;
58681;SDS011;44460;40.162;18.294;2023-03-19T05:53:19;31.88;;;21.30;;
58681;SDS011;44460;40.162;18.294;2023-03-19T05:56:15;31.25;;;19.50;;
58681;SDS011;44460;40.162;18.294;2023-03-19T05:58:59;28.73;;;18.77;;
58681;SDS011;44460;40.162;18.294;2023-03-19T06:01:33;29.42;;;17.90;;
58681;SDS011;44460;40.162;18.294;2023-03-19T06:03:59;28.92;;;18.70;;
58681;SDS011;44460;40.162;18.294;2023-03-19T06:06:25;25.05;;;17.55;;
58681;SDS011;44460;40.162;18.294;2023-03-19T06:08:51;29.40;;;18.95;;
58681;SDS011;44460;40.162;18.294;2023-03-19T06:11:36;25.38;;;18.30;;
58681;SDS011;44460;40.162;18.294;2023-03-19T06:14:24;27.48;;;17.92;;
58681;SDS011;44460;40.162;18.294;2023-03-19T06:17:10;25.88;;;16.77;;
58681;SDS011;44460;40.162;18.294;2023-03-19T06:19:36;22.05;;;16.50;;
58681;SDS011;44460;40.162;18.294;2023-03-19T06:22:01;27.20;;;17.00;;
58681;SDS011;44460;40.162;18.294;2023-03-19T06:24:27;27.17;;;17.85;;
58681;SDS011;44460;40.162;18.294;2023-03-19T06:26:54;24.73;;;18.42;;
58681;SDS011;44460;40.162;18.294;2023-03-19T06:29:20;24.85;;;17.08;;
58681;SDS011;44460;40.162;18.294;2023-03-19T06:31:49;23.73;;;15.82;;
58681;SDS011;44460;40.162;18.294;2023-03-19T06:34:25;22.55;;;15.15;;
58681;SDS011;44460;40.162;18.294;2023-03-19T06:36:50;23.15;;;15.02;;
58681;SDS011;44460;40.162;18.294;2023-03-19T06:39:18;21.85;;;14.18;;
58681;SDS011;44460;40.162;18.294;2023-03-19T06:41:43;19.35;;;13.07;;
58681;SDS011;44460;40.162;18.294;2023-03-19T06:44:17;19.95;;;13.70;;
58681;SDS011;44460;40.162;18.294;2023-03-19T06:46:43;20.08;;;14.00;;
58681;SDS011;44460;40.162;18.294;2023-03-19T06:49:08;20.50;;;14.38;;
58681;SDS011;44460;40.162;18.294;2023-03-19T06:51:33;20.85;;;12.70;;
58681;SDS011;44460;40.162;18.294;2023-03-19T06:53:59;19.63;;;12.85;;
58681;SDS011;44460;40.162;18.294;2023-03-19T06:56:24;17.88;;;12.25;;
58681;SDS011;44460;40.162;18.294;2023-03-19T06:58:50;21.73;;;11.05;;
58681;SDS011;44460;40.162;18.294;2023-03-19T07:01:15;15.98;;;10.23;;
58681;SDS011;44460;40.162;18.294;2023-03-19T07:03:41;18.92;;;10.27;;
58681;SDS011;44460;40.162;18.294;2023-03-19T07:06:06;17.17;;;9.93;;
58681;SDS011;44460;40.162;18.294;2023-03-19T07:08:31;19.60;;;10.95;;
58681;SDS011;44460;40.162;18.294;2023-03-19T07:11:04;13.30;;;9.27;;
58681;SDS011;44460;40.162;18.294;2023-03-19T07:13:30;12.15;;;7.75;;
58681;SDS011;44460;40.162;18.294;2023-03-19T07:15:55;11.55;;;7.22;;
58681;SDS011;44460;40.162;18.294;2023-03-19T07:18:21;12.88;;;7.60;;
58681;SDS011;44460;40.162;18.294;2023-03-19T07:20:46;9.65;;;6.00;;
58681;SDS011;44460;40.162;18.294;2023-03-19T07:23:11;9.63;;;5.53;;
58681;SDS011;44460;40.162;18.294;2023-03-19T07:25:37;8.82;;;5.15;;
58681;SDS011;44460;40.162;18.294;2023-03-19T07:28:02;7.32;;;4.82;;
58681;SDS011;44460;40.162;18.294;2023-03-19T07:30:28;12.02;;;5.82;;
58681;SDS011;44460;40.162;18.294;2023-03-19T07:32:53;9.20;;;5.40;;
58681;SDS011;44460;40.162;18.294;2023-03-19T07:35:19;9.02;;;5.18;;
58681;SDS011;44460;40.162;18.294;2023-03-19T07:37:45;9.73;;;4.85;;
58681;SDS011;44460;40.162;18.294;2023-03-19T07:40:11;7.90;;;4.93;;
58681;SDS011;44460;40.162;18.294;2023-03-19T07:42:36;7.32;;;4.53;;
58681;SDS011;44460;40.162;18.294;2023-03-19T07:45:03;8.30;;;4.47;;
58681;SDS011;44460;40.162;18.294;2023-03-19T07:47:28;8.15;;;4.28;;
58681;SDS011;44460;40.162;18.294;2023-03-19T07:49:54;8.82;;;4.18;;
58681;SDS011;44460;40.162;18.294;2023-03-19T07:52:19;9.25;;;4.40;;
58681;SDS011;44460;40.162;18.294;2023-03-19T07:54:45;6.22;;;3.33;;
58681;SDS011;44460;40.162;18.294;2023-03-19T07:57:11;6.25;;;3.33;;
58681;SDS011;44460;40.162;18.294;2023-03-19T07:59:36;7.78;;;3.60;;
58681;SDS011;44460;40.162;18.294;2023-03-19T08:02:01;5.78;;;3.10;;
58681;SDS011;44460;40.162;18.294;2023-03-19T08:04:27;6.53;;;2.58;;
58681;SDS011;44460;40.162;18.294;2023-03-19T08:06:52;5.90;;;2.83;;
58681;SDS011;44460;40.162;18.294;2023-03-19T08:09:18;6.60;;;2.92;;
58681;SDS011;44460;40.162;18.294;2023-03-19T08:11:43;5.75;;;2.65;;
58681;SDS011;44460;40.162;18.294;2023-03-19T08:14:08;6.30;;;2.83;;
58681;SDS011;44460;40.162;18.294;2023-03-19T08:16:34;6.45;;;3.20;;
58681;SDS011;44460;40.162;18.294;2023-03-19T08:19:00;7.30;;;3.70;;
58681;SDS011;44460;40.162;18.294;2023-03-19T08:21:26;6.67;;;2.97;;
58681;SDS011;44460;40.162;18.294;2023-03-19T08:23:51;8.57;;;3.60;;
58681;SDS011;44460;40.162;18.294;2023-03-19T08:26:17;7.30;;;3.20;;
58681;SDS011;44460;40.162;18.294;2023-03-19T08:28:42;6.07;;;3.13;;
58681;SDS011;44460;40.162;18.294;2023-03-19T08:31:09;4.88;;;2.70;;
58681;SDS011;44460;40.162;18.294;2023-03-19T08:33:34;5.40;;;2.50;;
58681;SDS011;44460;40.162;18.294;2023-03-19T08:36:07;5.25;;;2.97;;
58681;SDS011;44460;40.162;18.294;2023-03-19T08:38:33;5.57;;;3.20;;
58681;SDS011;44460;40.162;18.294;2023-03-19T08:40:58;6.93;;;3.20;;
58681;SDS011;44460;40.162;18.294;2023-03-19T08:43:27;6.28;;;2.92;;
58681;SDS011;44460;40.162;18.294;2023-03-19T08:45:52;5.82;;;3.08;;
58681;SDS011;44460;40.162;18.294;2023-03-19T08:48:18;7.28;;;3.00;;
58681;SDS011;44460;40.162;18.294;2023-03-19T08:50:43;12.65;;;10.02;;
58681;SDS011;44460;40.162;18.294;2023-03-19T08:53:08;8.10;;;3.42;;
58681;SDS011;44460;40.162;18.294;2023-03-19T08:55:34;6.75;;;3.35;;
58681;SDS011;44460;40.162;18.294;2023-03-19T08:57:59;7.38;;;3.72;;
58681;SDS011;44460;40.162;18.294;2023-03-19T09:00:25;7.05;;;3.20;;
58681;SDS011;44460;40.162;18.294;2023-03-19T09:02:51;7.60;;;3.63;;
58681;SDS011;44460;40.162;18.294;2023-03-19T09:05:16;7.38;;;3.25;;
58681;SDS011;44460;40.162;18.294;2023-03-19T09:07:46;5.03;;;2.58;;
58681;SDS011;44460;40.162;18.294;2023-03-19T09:10:12;5.20;;;2.60;;
58681;SDS011;44460;40.162;18.294;2023-03-19T09:12:37;5.97;;;2.83;;
58681;SDS011;44460;40.162;18.294;2023-03-19T09:15:02;9.65;;;2.60;;
58681;SDS011;44460;40.162;18.294;2023-03-19T09:17:28;6.93;;;2.70;;
58681;SDS011;44460;40.162;18.294;2023-03-19T09:19:54;6.18;;;2.63;;
58681;SDS011;44460;40.162;18.294;2023-03-19T09:22:19;8.43;;;3.10;;
58681;SDS011;44460;40.162;18.294;2023-03-19T09:24:45;5.13;;;2.50;;
58681;SDS011;44460;40.162;18.294;2023-03-19T09:27:10;6.05;;;2.55;;
58681;SDS011;44460;40.162;18.294;2023-03-19T09:29:36;4.97;;;2.60;;
58681;SDS011;44460;40.162;18.294;2023-03-19T09:32:01;6.65;;;2.90;;
58681;SDS011;44460;40.162;18.294;2023-03-19T09:34:27;6.13;;;2.92;;
58681;SDS011;44460;40.162;18.294;2023-03-19T09:36:53;5.97;;;3.00;;
58681;SDS011;44460;40.162;18.294;2023-03-19T09:39:19;6.15;;;3.20;;
58681;SDS011;44460;40.162;18.294;2023-03-19T09:42:03;7.07;;;3.30;;
58681;SDS011;44460;40.162;18.294;2023-03-19T09:49:45;6.13;;;2.90;;
58681;SDS011;44460;40.162;18.294;2023-03-19T09:54:44;7.85;;;3.63;;
58681;SDS011;44460;40.162;18.294;2023-03-19T09:57:13;6.32;;;3.70;;
58681;SDS011;44460;40.162;18.294;2023-03-19T09:59:38;8.40;;;3.53;;
58681;SDS011;44460;40.162;18.294;2023-03-19T10:07:44;7.05;;;3.60;;
58681;SDS011;44460;40.162;18.294;2023-03-19T10:10:04;14.73;;;3.65;;
58681;SDS011;44460;40.162;18.294;2023-03-19T10:12:46;6.30;;;3.35;;
58681;SDS011;44460;40.162;18.294;2023-03-19T10:15:18;5.78;;;2.80;;
58681;SDS011;44460;40.162;18.294;2023-03-19T10:17:53;7.05;;;3.40;;
58681;SDS011;44460;40.162;18.294;2023-03-19T10:25:38;7.00;;;3.15;;
58681;SDS011;44460;40.162;18.294;2023-03-19T10:28:14;7.23;;;3.70;;
58681;SDS011;44460;40.162;18.294;2023-03-19T10:30:41;7.25;;;3.33;;
58681;SDS011;44460;40.162;18.294;2023-03-19T10:33:13;9.38;;;4.47;;
58681;SDS011;44460;40.162;18.294;2023-03-19T10:35:44;10.10;;;3.97;;
58681;SDS011;44460;40.162;18.294;2023-03-19T10:38:17;7.95;;;4.50;;
58681;SDS011;44460;40.162;18.294;2023-03-19T10:40:46;8.65;;;4.43;;
58681;SDS011;44460;40.162;18.294;2023-03-19T10:43:16;7.00;;;3.72;;
58681;SDS011;44460;40.162;18.294;2023-03-19T10:45:42;8.23;;;3.85;;
58681;SDS011;44460;40.162;18.294;2023-03-19T10:48:11;9.27;;;4.30;;
58681;SDS011;44460;40.162;18.294;2023-03-19T10:50:37;7.22;;;4.20;;
58681;SDS011;44460;40.162;18.294;2023-03-19T10:53:21;6.78;;;3.45;;
58681;SDS011;44460;40.162;18.294;2023-03-19T10:55:50;8.32;;;3.80;;
58681;SDS011;44460;40.162;18.294;2023-03-19T10:58:18;9.48;;;3.60;;
58681;SDS011;44460;40.162;18.294;2023-03-19T11:00:45;8.90;;;3.60;;
58681;SDS011;44460;40.162;18.294;2023-03-19T11:05:54;6.95;;;4.13;;
58681;SDS011;44460;40.162;18.294;2023-03-19T11:08:27;8.20;;;3.95;;
58681;SDS011;44460;40.162;18.294;2023-03-19T11:10:52;6.35;;;3.30;;
58681;SDS011;44460;40.162;18.294;2023-03-19T11:13:24;8.65;;;3.72;;
58681;SDS011;44460;40.162;18.294;2023-03-19T11:15:51;10.23;;;4.05;;
58681;SDS011;44460;40.162;18.294;2023-03-19T11:18:24;13.63;;;6.22;;
58681;SDS011;44460;40.162;18.294;2023-03-19T11:20:59;11.10;;;4.75;;
58681;SDS011;44460;40.162;18.294;2023-03-19T11:23:27;9.55;;;4.43;;
58681;SDS011;44460;40.162;18.294;2023-03-19T11:25:53;32.63;;;4.78;;
58681;SDS011;44460;40.162;18.294;2023-03-19T11:28:20;8.93;;;4.00;;
58681;SDS011;44460;40.162;18.294;2023-03-19T11:38:07;11.23;;;4.40;;
58681;SDS011;44460;40.162;18.294;2023-03-19T12:06:52;7.85;;;3.60;;
58681;SDS011;44460;40.162;18.294;2023-03-19T12:09:37;8.77;;;4.63;;
58681;SDS011;44460;40.162;18.294;2023-03-19T12:27:57;9.32;;;5.13;;
58681;SDS011;44460;40.162;18.294;2023-03-19T12:30:31;6.63;;;3.33;;
58681;SDS011;44460;40.162;18.294;2023-03-19T12:33:01;7.07;;;3.70;;
58681;SDS011;44460;40.162;18.294;2023-03-19T12:35:32;7.90;;;3.40;;
58681;SDS011;44460;40.162;18.294;2023-03-19T12:38:02;7.85;;;3.88;;
58681;SDS011;44460;40.162;18.294;2023-03-19T12:43:17;11.65;;;5.50;;
58681;SDS011;44460;40.162;18.294;2023-03-19T12:45:45;10.48;;;4.32;;
58681;SDS011;44460;40.162;18.294;2023-03-19T12:48:14;9.27;;;5.28;;
58681;SDS011;44460;40.162;18.294;2023-03-19T12:50:43;7.13;;;3.67;;
58681;SDS011;44460;40.162;18.294;2023-03-19T12:53:25;9.55;;;3.80;;
58681;SDS011;44460;40.162;18.294;2023-03-19T12:55:54;7.78;;;3.55;;
58681;SDS011;44460;40.162;18.294;2023-03-19T12:58:24;8.02;;;3.40;;
58681;SDS011;44460;40.162;18.294;2023-03-19T13:00:58;10.05;;;3.38;;
58681;SDS011;44460;40.162;18.294;2023-03-19T13:10:47;6.55;;;3.00;;
58681;SDS011;44460;40.162;18.294;2023-03-19T13:15:58;6.22;;;2.80;;
58681;SDS011;44460;40.162;18.294;2023-03-19T13:23:20;6.35;;;3.08;;
58681;SDS011;44460;40.162;18.294;2023-03-19T13:25:47;8.55;;;3.67;;
58681;SDS011;44460;40.162;18.294;2023-03-19T13:28:25;7.60;;;3.08;;
58681;SDS011;44460;40.162;18.294;2023-03-19T13:31:05;6.45;;;3.30;;
58681;SDS011;44460;40.162;18.294;2023-03-19T13:33:32;8.63;;;3.72;;
58681;SDS011;44460;40.162;18.294;2023-03-19T13:36:03;9.75;;;3.25;;
58681;SDS011;44460;40.162;18.294;2023-03-19T13:38:33;6.75;;;3.10;;
58681;SDS011;44460;40.162;18.294;2023-03-19T13:41:02;7.05;;;2.83;;
58681;SDS011;44460;40.162;18.294;2023-03-19T13:48:35;6.25;;;2.72;;
58681;SDS011;44460;40.162;18.294;2023-03-19T13:51:13;6.40;;;2.70;;
58681;SDS011;44460;40.162;18.294;2023-03-19T13:56:28;7.22;;;3.17;;
58681;SDS011;44460;40.162;18.294;2023-03-19T13:59:53;8.73;;;3.05;;
58681;SDS011;44460;40.162;18.294;2023-03-19T14:01:48;7.80;;;3.47;;
58681;SDS011;44460;40.162;18.294;2023-03-19T14:04:35;7.50;;;2.70;;
58681;SDS011;44460;40.162;18.294;2023-03-19T14:07:11;8.60;;;3.22;;
58681;SDS011;44460;40.162;18.294;2023-03-19T14:09:40;8.02;;;3.30;;
58681;SDS011;44460;40.162;18.294;2023-03-19T14:14:48;8.00;;;3.67;;
58681;SDS011;44460;40.162;18.294;2023-03-19T14:17:15;9.95;;;4.30;;
58681;SDS011;44460;40.162;18.294;2023-03-19T14:19:43;9.85;;;3.45;;
58681;SDS011;44460;40.162;18.294;2023-03-19T14:22:17;7.45;;;3.28;;
58681;SDS011;44460;40.162;18.294;2023-03-19T14:24:53;10.73;;;3.63;;
58681;SDS011;44460;40.162;18.294;2023-03-19T14:29:50;10.52;;;3.40;;
58681;SDS011;44460;40.162;18.294;2023-03-19T14:32:17;7.50;;;3.50;;
58681;SDS011;44460;40.162;18.294;2023-03-19T14:34:44;7.32;;;3.13;;
58681;SDS011;44460;40.162;18.294;2023-03-19T14:39:42;7.75;;;3.10;;
58681;SDS011;44460;40.162;18.294;2023-03-19T14:42:27;11.48;;;3.63;;
58681;SDS011;44460;40.162;18.294;2023-03-19T14:52:45;8.60;;;3.20;;
58681;SDS011;44460;40.162;18.294;2023-03-19T14:55:16;8.10;;;3.63;;
58681;SDS011;44460;40.162;18.294;2023-03-19T14:57:41;9.10;;;3.13;;
58681;SDS011;44460;40.162;18.294;2023-03-19T15:00:14;8.10;;;3.22;;
58681;SDS011;44460;40.162;18.294;2023-03-19T15:05:19;10.82;;;3.45;;
58681;SDS011;44460;40.162;18.294;2023-03-19T15:07:46;13.07;;;3.50;;
58681;SDS011;44460;40.162;18.294;2023-03-19T15:17:59;8.13;;;3.88;;
58681;SDS011;44460;40.162;18.294;2023-03-19T15:20:25;8.63;;;4.03;;
58681;SDS011;44460;40.162;18.294;2023-03-19T15:22:55;7.05;;;3.22;;
58681;SDS011;44460;40.162;18.294;2023-03-19T15:25:21;8.75;;;4.05;;
58681;SDS011;44460;40.162;18.294;2023-03-19T15:27:57;8.05;;;3.13;;
58681;SDS011;44460;40.162;18.294;2023-03-19T15:30:28;14.77;;;4.78;;
58681;SDS011;44460;40.162;18.294;2023-03-19T15:32:53;6.97;;;3.15;;
58681;SDS011;44460;40.162;18.294;2023-03-19T15:35:19;29.33;;;18.77;;
58681;SDS011;44460;40.162;18.294;2023-03-19T15:37:48;20.27;;;12.80;;
58681;SDS011;44460;40.162;18.294;2023-03-19T15:40:15;11.13;;;5.30;;
58681;SDS011;44460;40.162;18.294;2023-03-19T15:42:42;6.55;;;3.60;;
58681;SDS011;44460;40.162;18.294;2023-03-19T15:45:10;10.30;;;4.03;;
58681;SDS011;44460;40.162;18.294;2023-03-19T15:47:47;8.85;;;4.20;;
58681;SDS011;44460;40.162;18.294;2023-03-19T15:52:41;46.42;;;33.50;;
58681;SDS011;44460;40.162;18.294;2023-03-19T15:55:07;10.65;;;4.63;;
58681;SDS011;44460;40.162;18.294;2023-03-19T15:57:33;10.80;;;5.03;;
58681;SDS011;44460;40.162;18.294;2023-03-19T15:59:59;10.35;;;4.07;;
58681;SDS011;44460;40.162;18.294;2023-03-19T16:02:27;7.25;;;3.60;;
58681;SDS011;44460;40.162;18.294;2023-03-19T16:04:52;8.63;;;3.88;;
58681;SDS011;44460;40.162;18.294;2023-03-19T16:07:22;11.93;;;4.28;;
58681;SDS011;44460;40.162;18.294;2023-03-19T16:09:48;14.27;;;4.32;;
58681;SDS011;44460;40.162;18.294;2023-03-19T16:12:47;11.55;;;4.85;;
58681;SDS011;44460;40.162;18.294;2023-03-19T16:17:50;7.72;;;3.65;;
58681;SDS011;44460;40.162;18.294;2023-03-19T16:20:15;8.18;;;3.35;;
58681;SDS011;44460;40.162;18.294;2023-03-19T16:22:41;11.15;;;4.00;;
58681;SDS011;44460;40.162;18.294;2023-03-19T16:25:14;11.27;;;3.53;;
58681;SDS011;44460;40.162;18.294;2023-03-19T16:27:40;7.93;;;3.60;;
58681;SDS011;44460;40.162;18.294;2023-03-19T16:30:20;8.63;;;3.88;;
58681;SDS011;44460;40.162;18.294;2023-03-19T16:32:55;7.75;;;3.63;;
58681;SDS011;44460;40.162;18.294;2023-03-19T16:35:21;11.50;;;4.53;;
58681;SDS011;44460;40.162;18.294;2023-03-19T16:37:47;11.68;;;4.90;;
58681;SDS011;44460;40.162;18.294;2023-03-19T16:42:41;10.27;;;4.20;;
58681;SDS011;44460;40.162;18.294;2023-03-19T16:47:45;11.05;;;3.80;;